Etusivu
METAR-TAF:

METAR-TAF

Lentoasemat :

Albert Lea, Minnesota, Yhdysvallat

Leveyspiiri: 43-41N, Pituuspiiri: 093-22W, korkeus merenpinnasta: 383 m

Tämänhetkinen sää

Tämä raportti tehtiin 6 minuuttia sitten, kello 20.15 UTC
Tuuli 7 kn lännestä/luoteesta
Lämpötila -5°C
Kosteus 73%
Ilmanpaine 1024 hPa
Näkyvyys: 16.1 km
selkeää

METAR: KAEL 262015Z AUTO 29007KT 10SM CLR M05/M09 A3024 RMK AO2

Aika: 14:21 (20:21 UTC)


TAF: puuttuu

Säähavainnot ja -ennusteet yli 4000 lentoasemalta (METAR- ja TAF-raportit).

Käytössä olevat sääasemat on merkitty karttaan keltaisilla ja punaisilla pisteillä.

Aseta hiiri pisteen päälle nähdäksesi sääaseman nimen.

Klikkaa sitten nähdäksesi säähavainnot ja -ennusteet.

Kartan vaihtaminen: klikkaa mustalla rastilla varustettuja vihreitä pisteitä, niin voit zoomata sisään; viivalla varustettua vihreää pistettä, niin voit zoomata ulos tai vihreitä nuolia, niin pääset viereisille kartoille.


METAR-TAF: